createdAt,value
2019-01-16T00:00:19.385Z,3.2
2019-01-16T00:02:19.047Z,3.1
2019-01-16T00:04:18.716Z,2.7
2019-01-16T00:06:18.727Z,2.2
2019-01-16T00:08:19.388Z,3
2019-01-16T00:10:18.507Z,2.8
2019-01-16T00:12:19.187Z,2.9
2019-01-16T00:14:18.840Z,3.4
2019-01-16T00:16:18.682Z,3.3
2019-01-16T00:18:19.427Z,3
2019-01-16T00:20:19.118Z,2.7
2019-01-16T00:22:18.756Z,3.7
2019-01-16T00:24:19.450Z,2.8
2019-01-16T00:26:19.291Z,2.9
2019-01-16T00:28:18.944Z,2.6
2019-01-16T00:30:18.614Z,2.4
2019-01-16T00:32:19.282Z,3
2019-01-16T00:34:18.952Z,2.2
2019-01-16T00:36:19.249Z,2.3
2019-01-16T00:38:18.897Z,3.5
2019-01-16T00:40:19.017Z,3.5
2019-01-16T00:42:18.674Z,3
2019-01-16T00:44:19.324Z,2.6
2019-01-16T00:46:19.141Z,2.5
2019-01-16T00:48:24.476Z,2.8
2019-01-16T00:50:19.293Z,2.7
2019-01-16T00:52:18.946Z,3.2
2019-01-16T00:54:18.620Z,3.3
2019-01-16T00:56:18.962Z,2
2019-01-16T00:58:18.622Z,2.3
2019-01-16T01:00:19.296Z,2.2
2019-01-16T01:02:18.975Z,2.4
2019-01-16T01:04:18.639Z,2.1
2019-01-16T01:06:18.945Z,2.6
2019-01-16T01:08:18.584Z,2.4
2019-01-16T01:10:18.690Z,2.3
2019-01-16T01:12:19.315Z,2.1
2019-01-16T01:14:19.010Z,2.2
2019-01-16T01:16:18.786Z,1.8
2019-01-16T01:18:18.510Z,2.4
2019-01-16T01:20:19.168Z,2
2019-01-16T01:22:18.828Z,3
2019-01-16T01:24:18.489Z,2.6
2019-01-16T01:26:18.768Z,2.6
2019-01-16T01:28:19.415Z,1.3
2019-01-16T01:30:19.084Z,1.9
2019-01-16T01:32:18.742Z,2
2019-01-16T01:34:19.368Z,1.9
2019-01-16T01:36:18.719Z,2.6
2019-01-16T01:38:19.373Z,1.9
2019-01-16T01:40:18.518Z,1.8
2019-01-16T01:42:19.170Z,2
2019-01-16T01:44:18.839Z,1.8
2019-01-16T01:46:19.133Z,2.4
2019-01-16T01:48:18.783Z,1.9
2019-01-16T01:50:19.463Z,2.2
2019-01-16T01:52:19.112Z,2
2019-01-16T01:54:18.763Z,2.6
2019-01-16T01:56:18.544Z,2.4
2019-01-16T01:58:19.176Z,1.8
2019-01-16T02:00:18.833Z,1.7
2019-01-16T02:02:18.480Z,2.6
2019-01-16T02:04:19.137Z,1.5
2019-01-16T02:06:19.404Z,1.9
2019-01-16T02:08:19.044Z,2
2019-01-16T02:10:19.141Z,1.8
2019-01-16T02:12:18.786Z,3.2
2019-01-16T02:14:18.445Z,2.7
2019-01-16T02:16:18.694Z,2.5
2019-01-16T02:18:19.436Z,2.8
2019-01-16T02:20:19.112Z,2.2
2019-01-16T02:22:18.775Z,1.9
2019-01-16T02:24:19.434Z,1.8
2019-01-16T02:26:19.262Z,1.8
2019-01-16T02:28:18.980Z,2
2019-01-16T02:30:18.647Z,1.9
2019-01-16T02:32:19.307Z,2.3
2019-01-16T02:34:18.957Z,2.5
2019-01-16T02:36:19.241Z,2
2019-01-16T02:38:18.931Z,1.7
2019-01-16T02:40:19.035Z,1.9
2019-01-16T02:42:18.728Z,2.7
2019-01-16T02:44:19.389Z,3.1
2019-01-16T02:46:19.191Z,2.6
2019-01-16T02:48:18.851Z,3
2019-01-16T02:50:18.556Z,2.5
2019-01-16T02:52:19.230Z,2
2019-01-16T02:54:18.865Z,1.7
2019-01-16T02:56:18.674Z,2
2019-01-16T02:58:19.338Z,2.5
2019-01-16T03:00:19.008Z,2.9
2019-01-16T03:02:18.646Z,3.6
2019-01-16T03:04:19.321Z,2.8
2019-01-16T03:06:19.150Z,3.7
2019-01-16T03:08:18.793Z,3.9
2019-01-16T03:10:19.082Z,3.9
2019-01-16T03:12:18.735Z,2.9
2019-01-16T03:14:19.369Z,3.3
2019-01-16T03:16:19.190Z,4.5
2019-01-16T03:18:18.909Z,4.1
2019-01-16T03:20:18.583Z,4.8
2019-01-16T03:22:19.258Z,5.8
2019-01-16T03:24:18.930Z,4
2019-01-16T03:26:18.746Z,4.3
2019-01-16T03:28:19.408Z,4.7
2019-01-16T03:30:19.111Z,4.3
2019-01-16T03:32:18.751Z,5
2019-01-16T03:34:19.406Z,4.7
2019-01-16T03:36:18.666Z,5.6
2019-01-16T03:38:19.328Z,3.8
2019-01-16T03:40:19.503Z,4.7
2019-01-16T03:42:19.137Z,5.9
2019-01-16T03:44:18.788Z,5.9
2019-01-16T03:46:19.067Z,5.7
2019-01-16T03:48:18.742Z,5.9
2019-01-16T03:50:19.452Z,6.1
2019-01-16T03:52:19.094Z,5.5
2019-01-16T03:54:18.728Z,5.8
2019-01-16T03:56:18.947Z,5.9
2019-01-16T03:58:18.597Z,6
2019-01-16T04:00:19.249Z,5.5
2019-01-16T04:02:18.877Z,5.4
2019-01-16T04:04:18.503Z,4.7
2019-01-16T04:06:18.829Z,7.1
2019-01-16T04:08:18.543Z,6.1
2019-01-16T04:10:18.669Z,5.9
2019-01-16T04:12:19.401Z,5.5
2019-01-16T04:14:19.036Z,4.7
2019-01-16T04:16:18.829Z,6.3
2019-01-16T04:18:18.551Z,6.2
2019-01-16T04:20:19.207Z,6.1
2019-01-16T04:22:18.870Z,7
2019-01-16T04:24:18.532Z,5.9
2019-01-16T04:26:19.340Z,4.9
2019-01-16T04:28:18.996Z,6.5
2019-01-16T04:30:18.710Z,5.1
2019-01-16T04:32:19.359Z,5
2019-01-16T04:34:19.008Z,5.6
2019-01-16T04:36:19.313Z,4
2019-01-16T04:38:18.980Z,6.1
2019-01-16T04:40:19.094Z,5.4
2019-01-16T04:42:18.726Z,6.2
2019-01-16T04:44:19.385Z,4.4
2019-01-16T04:46:18.773Z,5.3
2019-01-16T04:48:19.438Z,4.7
2019-01-16T04:50:19.117Z,5.9
2019-01-16T04:52:18.768Z,4.7
2019-01-16T04:54:19.426Z,4.4
2019-01-16T04:56:18.716Z,5.5
2019-01-16T04:58:19.369Z,5
2019-01-16T05:00:19.035Z,4.3
2019-01-16T05:02:18.705Z,5.1
2019-01-16T05:04:19.353Z,4.5
2019-01-16T05:06:18.646Z,4.9
2019-01-16T05:08:19.296Z,3.7
2019-01-16T05:10:19.619Z,3.7
2019-01-16T05:12:19.255Z,4.1
2019-01-16T05:14:18.931Z,4.9
2019-01-16T05:16:19.250Z,4.3
2019-01-16T05:18:18.967Z,4.2
2019-01-16T05:20:18.655Z,3.9
2019-01-16T05:22:19.314Z,4.7
2019-01-16T05:24:18.963Z,3.5
2019-01-16T05:26:19.255Z,3.2
2019-01-16T05:28:18.896Z,4.4
2019-01-16T05:30:18.564Z,3.2
2019-01-16T05:32:19.217Z,3.6
2019-01-16T05:34:18.868Z,3.7
2019-01-16T05:36:18.684Z,3.6
2019-01-16T05:38:19.355Z,3.7
2019-01-16T05:40:18.519Z,3.8
2019-01-16T05:42:19.188Z,3.1
2019-01-16T05:44:18.832Z,3.3
2019-01-16T05:46:19.152Z,3.9
2019-01-16T05:48:18.809Z,3.4
2019-01-16T05:50:18.462Z,3.3
2019-01-16T05:52:19.100Z,4
2019-01-16T05:54:18.757Z,3.2
2019-01-16T05:56:19.098Z,4
2019-01-16T05:58:18.762Z,3.6
2019-01-16T06:00:19.440Z,3.8
2019-01-16T06:02:19.096Z,4
2019-01-16T06:04:18.741Z,4.9
2019-01-16T06:06:18.997Z,4.3
2019-01-16T06:08:18.659Z,4.1
2019-01-16T06:10:18.794Z,3.7
2019-01-16T06:12:18.435Z,2.6
2019-01-16T06:14:19.066Z,3.9
2019-01-16T06:16:18.842Z,3.6
2019-01-16T06:18:18.594Z,4.1
2019-01-16T06:20:19.293Z,3.9
2019-01-16T06:22:18.941Z,4
2019-01-16T06:24:18.594Z,3.7
2019-01-16T06:26:19.056Z,3.8
2019-01-16T06:28:18.703Z,3.2
2019-01-16T06:30:19.387Z,4
2019-01-16T06:32:19.050Z,3.5
2019-01-16T06:34:18.688Z,3.7
2019-01-16T06:36:19.012Z,4.8
2019-01-16T06:38:18.658Z,3.7
2019-01-16T06:40:18.814Z,4.4
2019-01-16T06:42:18.459Z,4.3
2019-01-16T06:44:19.107Z,4.2
2019-01-16T06:46:19.377Z,4
2019-01-16T06:48:19.017Z,4.5
2019-01-16T06:50:18.682Z,3.9
2019-01-16T06:52:19.357Z,3.9
2019-01-16T06:54:19.038Z,3.6
2019-01-16T06:56:18.866Z,4.8
2019-01-16T06:58:18.495Z,3.1
2019-01-16T07:00:19.185Z,4.4
2019-01-16T07:02:18.833Z,4.1
2019-01-16T07:04:18.514Z,3.8
2019-01-16T07:06:19.335Z,4.6
2019-01-16T07:08:19.000Z,3
2019-01-16T07:10:19.175Z,4.1
2019-01-16T07:12:18.852Z,2.9
2019-01-16T07:14:18.515Z,3.4
2019-01-16T07:16:18.830Z,3.4
2019-01-16T07:18:18.621Z,3.4
2019-01-16T07:20:19.281Z,2.7
2019-01-16T07:22:18.931Z,2.4
2019-01-16T07:24:18.566Z,3.1
2019-01-16T07:26:18.835Z,3.3
2019-01-16T07:28:18.475Z,2.7
2019-01-16T07:30:19.140Z,2.3
2019-01-16T07:32:18.785Z,2.9
2019-01-16T07:34:19.417Z,1.9
2019-01-16T07:36:18.693Z,2.2
2019-01-16T07:38:19.316Z,2.7
2019-01-16T07:40:19.428Z,2.5
2019-01-16T07:42:19.053Z,2.9
2019-01-16T07:44:18.716Z,2.5
2019-01-16T07:46:18.500Z,2.2
2019-01-16T07:48:19.139Z,2.6
2019-01-16T07:50:18.804Z,3.2
2019-01-16T07:52:18.474Z,1.9
2019-01-16T07:54:19.119Z,2.1
2019-01-16T07:56:19.396Z,2.1
2019-01-16T07:58:19.037Z,2
2019-01-16T08:00:18.691Z,1.7
2019-01-16T08:02:19.368Z,2.3
2019-01-16T08:04:19.090Z,2.4
2019-01-16T08:06:19.368Z,2.6
2019-01-16T08:08:19.042Z,1.4
2019-01-16T08:10:19.172Z,2.2
2019-01-16T08:12:18.794Z,2.3
2019-01-16T08:14:18.459Z,2.8
2019-01-16T08:16:18.710Z,2.3
2019-01-16T08:18:19.418Z,2
2019-01-16T08:20:24.802Z,1.8
2019-01-16T08:22:18.848Z,2.4
2019-01-16T08:24:18.500Z,1.9
2019-01-16T08:26:18.800Z,1.8
2019-01-16T08:28:18.459Z,1.7
2019-01-16T08:30:19.101Z,1.3
2019-01-16T08:32:18.746Z,2
2019-01-16T08:34:19.382Z,2.3
2019-01-16T08:36:19.235Z,1.6
2019-01-16T08:38:18.913Z,2
2019-01-16T08:40:19.094Z,2
2019-01-16T08:42:18.795Z,1.9
2019-01-16T08:44:18.451Z,1.8
2019-01-16T08:46:18.711Z,1.8
2019-01-16T08:48:19.344Z,2.3
2019-01-16T08:50:18.995Z,2.1
2019-01-16T08:52:18.644Z,1.9
2019-01-16T08:54:19.297Z,1.8
2019-01-16T08:56:18.570Z,1.6
2019-01-16T08:58:19.233Z,1.9
2019-01-16T09:00:18.891Z,1.7
2019-01-16T09:02:18.528Z,2
2019-01-16T09:04:19.176Z,1.4
2019-01-16T09:06:18.442Z,2.3
2019-01-16T09:08:19.110Z,1.9
2019-01-16T09:10:19.250Z,1.7
2019-01-16T09:12:18.878Z,1.5
2019-01-16T09:14:18.526Z,2
2019-01-16T09:16:18.807Z,1.6
2019-01-16T09:18:18.524Z,1.7
2019-01-16T09:20:19.199Z,1.9
2019-01-16T09:22:18.849Z,1.6
2019-01-16T09:24:18.501Z,1.6
2019-01-16T09:26:18.857Z,1.7
2019-01-16T09:28:18.498Z,1.4
2019-01-16T09:30:19.169Z,1.5
2019-01-16T09:32:18.829Z,1.5
2019-01-16T09:34:18.465Z,1.8
2019-01-16T09:36:19.286Z,1.6
2019-01-16T09:38:18.932Z,1.8
2019-01-16T09:40:19.080Z,1.5
2019-01-16T09:42:18.741Z,1.6
2019-01-16T09:44:19.416Z,2.2
2019-01-16T09:46:19.258Z,1.5
2019-01-16T09:48:18.907Z,1.5
2019-01-16T09:50:18.568Z,1.6
2019-01-16T09:52:19.214Z,1.2
2019-01-16T09:54:18.868Z,1.4
2019-01-16T09:56:18.739Z,1.9
2019-01-16T09:58:19.375Z,1.4
2019-01-16T10:00:19.041Z,1.6
2019-01-16T10:02:18.705Z,1.2
2019-01-16T10:04:19.369Z,1.5
2019-01-16T10:06:19.199Z,1.2
2019-01-16T10:08:18.844Z,1.8
2019-01-16T10:10:19.093Z,1.7
2019-01-16T10:12:18.741Z,1.1
2019-01-16T10:14:19.374Z,1.4
2019-01-16T10:16:19.185Z,1.5
2019-01-16T10:18:18.929Z,1.3
2019-01-16T10:20:18.610Z,1.3
2019-01-16T10:22:19.280Z,1.7
2019-01-16T10:24:18.949Z,1.4
2019-01-16T10:26:19.279Z,1.6
2019-01-16T10:28:18.945Z,1.5
2019-01-16T10:30:18.620Z,1.3
2019-01-16T10:32:19.299Z,1.5
2019-01-16T10:34:18.938Z,1.1
2019-01-16T10:36:18.761Z,1.4
2019-01-16T10:38:19.419Z,1.2
2019-01-16T10:40:18.558Z,1.2
2019-01-16T10:42:19.231Z,1.1
2019-01-16T10:44:18.926Z,1.4
2019-01-16T10:46:19.180Z,1.6
2019-01-16T10:48:18.831Z,1.2
2019-01-16T10:50:18.499Z,1.3
2019-01-16T10:52:19.157Z,1
2019-01-16T10:54:18.800Z,1.7
2019-01-16T10:56:19.139Z,0.8
2019-01-16T10:58:18.777Z,1.2
2019-01-16T11:00:19.454Z,1.3
2019-01-16T11:02:19.117Z,1.1
2019-01-16T11:04:18.759Z,1.3
2019-01-16T11:06:19.109Z,1.5
2019-01-16T11:08:18.792Z,1
2019-01-16T11:10:18.961Z,1.9
2019-01-16T11:12:18.618Z,0.8
2019-01-16T11:14:19.290Z,1
2019-01-16T11:16:18.606Z,0.8
2019-01-16T11:18:19.357Z,0.9
2019-01-16T11:20:19.021Z,0.9
2019-01-16T11:22:18.659Z,1.2
2019-01-16T11:24:19.307Z,1.1
2019-01-16T11:26:19.144Z,1
2019-01-16T11:28:18.795Z,0.8
2019-01-16T11:30:18.484Z,1.1
2019-01-16T11:32:19.147Z,1.4
2019-01-16T11:34:18.790Z,0.8
2019-01-16T11:36:18.568Z,1
2019-01-16T11:38:19.231Z,0.8
2019-01-16T11:40:19.354Z,0.5
2019-01-16T11:42:19.035Z,0.9
2019-01-16T11:44:18.686Z,0.8
2019-01-16T11:46:18.519Z,1.2
2019-01-16T11:48:19.180Z,1
2019-01-16T11:50:18.823Z,0.8
2019-01-16T11:52:18.462Z,1
2019-01-16T11:54:19.143Z,0.8
2019-01-16T11:56:18.467Z,0.6
2019-01-16T11:58:19.120Z,0.8
2019-01-16T12:00:18.898Z,1
2019-01-16T12:02:18.545Z,0.7
2019-01-16T12:04:19.183Z,1.2
2019-01-16T12:06:18.432Z,0.9
2019-01-16T12:08:19.079Z,0.7
2019-01-16T12:10:19.220Z,0.8
2019-01-16T12:12:18.885Z,0.8
2019-01-16T12:14:18.543Z,0.5
2019-01-16T12:16:18.859Z,0.8
2019-01-16T12:18:18.590Z,0.9
2019-01-16T12:20:19.269Z,0.6
2019-01-16T12:22:18.924Z,1
2019-01-16T12:24:18.595Z,0.8
2019-01-16T12:26:18.501Z,1
2019-01-16T12:28:19.175Z,0.7
2019-01-16T12:30:18.841Z,0.4
2019-01-16T12:32:18.529Z,0.3
2019-01-16T12:34:19.187Z,0.7
2019-01-16T12:36:19.006Z,0.6
2019-01-16T12:38:18.676Z,1
2019-01-16T12:40:18.860Z,0.5
2019-01-16T12:42:18.496Z,0.8
2019-01-16T12:44:19.130Z,0.5
2019-01-16T12:46:19.375Z,0.8
2019-01-16T12:48:19.066Z,0.6
2019-01-16T12:50:18.746Z,0.8
2019-01-16T12:52:19.393Z,0.7
2019-01-16T12:54:19.083Z,0.7
2019-01-16T12:56:19.354Z,0.4
2019-01-16T12:58:19.009Z,0.8
2019-01-16T13:00:18.708Z,0.6
2019-01-16T13:02:19.358Z,0.6
2019-01-16T13:04:19.027Z,1.1
2019-01-16T13:06:19.320Z,0.7
2019-01-16T13:08:18.949Z,0.7
2019-01-16T13:10:19.062Z,0.5
2019-01-16T13:12:18.699Z,0.5
2019-01-16T13:14:19.362Z,0.4
2019-01-16T13:16:19.230Z,0.6
2019-01-16T13:18:18.955Z,0.7
2019-01-16T13:20:18.642Z,0.4
2019-01-16T13:22:19.298Z,0.6
2019-01-16T13:24:18.962Z,0.6
2019-01-16T13:26:19.250Z,0.7
2019-01-16T13:28:18.875Z,0.6
2019-01-16T13:30:18.530Z,1
2019-01-16T13:32:19.190Z,0.3
2019-01-16T13:34:18.839Z,0.8
2019-01-16T13:36:19.071Z,0.6
2019-01-16T13:38:18.729Z,1
2019-01-16T13:40:18.839Z,0.6
2019-01-16T13:42:18.500Z,0.5
2019-01-16T13:44:19.159Z,0.7
2019-01-16T13:46:18.983Z,0.4
2019-01-16T13:48:18.636Z,0.7
2019-01-16T13:50:19.300Z,0.6
2019-01-16T13:52:19.125Z,0.6
2019-01-16T13:54:18.854Z,0.9
2019-01-16T13:56:19.113Z,0.6
2019-01-16T13:58:18.775Z,0.8
2019-01-16T14:00:19.473Z,0.4
2019-01-16T14:02:19.134Z,0.5
2019-01-16T14:04:18.785Z,0.7
2019-01-16T14:06:19.153Z,0.4
2019-01-16T14:08:18.820Z,0.6
2019-01-16T14:10:18.926Z,0.4
2019-01-16T14:12:18.612Z,0.7
2019-01-16T14:14:19.260Z,0.7
2019-01-16T14:16:19.041Z,0.7
2019-01-16T14:18:18.777Z,0.6
2019-01-16T14:20:18.441Z,0.5
2019-01-16T14:22:19.098Z,0.5
2019-01-16T14:24:18.744Z,0.9
2019-01-16T14:26:19.027Z,0.9
2019-01-16T14:28:18.676Z,0.7
2019-01-16T14:30:19.364Z,0.6
2019-01-16T14:32:19.088Z,0.8
2019-01-16T14:34:18.730Z,0.8
2019-01-16T14:36:18.562Z,0.6
2019-01-16T14:38:19.204Z,0.8
2019-01-16T14:40:19.366Z,0.9
2019-01-16T14:42:19.010Z,1.2
2019-01-16T14:44:18.672Z,0.7
2019-01-16T14:46:19.085Z,0.5
2019-01-16T14:48:18.755Z,0.7
2019-01-16T14:50:19.433Z,0.7
2019-01-16T14:52:19.092Z,0.6
2019-01-16T14:54:18.758Z,0.5
2019-01-16T14:56:19.083Z,0.5
2019-01-16T14:58:18.725Z,0.8
2019-01-16T15:00:19.384Z,0.7
2019-01-16T15:02:19.032Z,0.7
2019-01-16T15:04:18.700Z,1
2019-01-16T15:06:19.072Z,0.5
2019-01-16T15:08:18.734Z,1
2019-01-16T15:10:18.875Z,1
2019-01-16T15:12:18.536Z,1.1
2019-01-16T15:14:19.189Z,0.6
2019-01-16T15:16:18.998Z,0.8
2019-01-16T15:18:18.732Z,0.5
2019-01-16T15:20:19.407Z,0.8
2019-01-16T15:22:19.092Z,0.7
2019-01-16T15:24:18.758Z,2.1
2019-01-16T15:26:18.615Z,0.4
2019-01-16T15:28:19.264Z,1
2019-01-16T15:30:18.943Z,0.9
2019-01-16T15:32:18.589Z,0.7
2019-01-16T15:34:19.262Z,1.1
2019-01-16T15:36:18.537Z,0.9
2019-01-16T15:38:19.165Z,0.7
2019-01-16T15:40:19.380Z,1.5
2019-01-16T15:42:19.061Z,0.8
2019-01-16T15:44:18.713Z,0.7
2019-01-16T15:46:19.002Z,0.7
2019-01-16T15:48:18.675Z,0.7
2019-01-16T15:50:19.359Z,0.9
2019-01-16T15:52:19.070Z,0.6
2019-01-16T15:54:23.808Z,0.9
2019-01-16T15:56:19.008Z,1
2019-01-16T15:58:18.672Z,0.9
2019-01-16T16:00:19.341Z,1
2019-01-16T16:02:18.978Z,1.3
2019-01-16T16:04:18.618Z,1.4
2019-01-16T16:06:18.471Z,1
2019-01-16T16:08:19.142Z,0.7
2019-01-16T16:10:19.244Z,1.1
2019-01-16T16:12:18.864Z,1.7
2019-01-16T16:14:18.524Z,1
2019-01-16T16:16:19.376Z,1.2
2019-01-16T16:18:19.094Z,1.2
2019-01-16T16:20:18.770Z,1
2019-01-16T16:22:19.489Z,0.6
2019-01-16T16:24:19.143Z,1
2019-01-16T16:26:19.402Z,0.7
2019-01-16T16:28:19.091Z,1.2
2019-01-16T16:30:18.785Z,0.9
2019-01-16T16:32:18.445Z,0.8
2019-01-16T16:34:19.094Z,0.6
2019-01-16T16:36:18.557Z,1
2019-01-16T16:38:19.214Z,0.8
2019-01-16T16:40:19.362Z,0.9
2019-01-16T16:42:19.037Z,1
2019-01-16T16:44:18.690Z,1.3
2019-01-16T16:46:19.022Z,1.4
2019-01-16T16:48:18.691Z,0.8
2019-01-16T16:50:19.367Z,2.2
2019-01-16T16:52:19.050Z,1.8
2019-01-16T16:54:18.672Z,0.8
2019-01-16T16:56:18.911Z,0.9
2019-01-16T16:58:18.571Z,0.9
2019-01-16T17:00:19.268Z,1.2
2019-01-16T17:02:18.930Z,0.8
2019-01-16T17:04:18.570Z,0.8
2019-01-16T17:06:18.824Z,1.3
2019-01-16T17:08:18.475Z,1.5
2019-01-16T17:10:18.626Z,1.2
2019-01-16T17:12:19.280Z,1.2
2019-01-16T17:14:18.934Z,1
2019-01-16T17:16:18.766Z,2
2019-01-16T17:18:18.517Z,1
2019-01-16T17:20:19.190Z,1.7
2019-01-16T17:22:18.842Z,1.5
2019-01-16T17:24:18.481Z,1.3
2019-01-16T17:26:18.732Z,1.5
2019-01-16T17:28:19.362Z,1.4
2019-01-16T17:30:19.022Z,1.3
2019-01-16T17:32:18.667Z,1.7
2019-01-16T17:34:19.313Z,1.4
2019-01-16T17:36:18.566Z,1.6
2019-01-16T17:38:19.214Z,1.6
2019-01-16T17:40:19.330Z,1.2
2019-01-16T17:42:18.990Z,1.3
2019-01-16T17:44:18.618Z,1.7
2019-01-16T17:46:18.841Z,1
2019-01-16T17:48:18.512Z,1.3
2019-01-16T17:50:19.180Z,1.8
2019-01-16T17:52:18.835Z,1.8
2019-01-16T17:54:18.465Z,2
2019-01-16T17:56:18.781Z,1.6
2019-01-16T17:58:19.403Z,1.8
2019-01-16T18:00:19.070Z,1.6
2019-01-16T18:02:18.728Z,2.5
2019-01-16T18:04:19.380Z,1.3
2019-01-16T18:06:18.691Z,1.6
2019-01-16T18:08:19.323Z,1.4
2019-01-16T18:10:19.501Z,1.5
2019-01-16T18:12:19.134Z,1.6
2019-01-16T18:14:18.782Z,1.7
2019-01-16T18:16:19.199Z,1.5
2019-01-16T18:18:18.952Z,1.9
2019-01-16T18:20:18.665Z,1.3
2019-01-16T18:22:19.332Z,1.5
2019-01-16T18:24:19.005Z,1.7
2019-01-16T18:26:18.879Z,1.8
2019-01-16T18:28:18.508Z,1.6
2019-01-16T18:30:19.156Z,1.4
2019-01-16T18:32:18.814Z,1
2019-01-16T18:34:18.457Z,1.5
2019-01-16T18:36:19.271Z,1.6
2019-01-16T18:38:19.076Z,2
2019-01-16T18:40:19.394Z,1.7
2019-01-16T18:42:19.120Z,1.7
2019-01-16T18:44:18.749Z,1.8
2019-01-16T18:46:19.056Z,1.7
2019-01-16T18:48:18.702Z,1.6
2019-01-16T18:50:19.433Z,1.2
2019-01-16T18:52:19.086Z,2
2019-01-16T18:54:18.729Z,2.3
2019-01-16T18:56:19.012Z,1.5
2019-01-16T18:58:18.659Z,1.8
2019-01-16T19:00:19.365Z,1.8
2019-01-16T19:02:19.011Z,2.9
2019-01-16T19:04:18.661Z,1.9
2019-01-16T19:06:18.479Z,1.1
2019-01-16T19:08:19.144Z,1.9
2019-01-16T19:10:19.290Z,1.6
2019-01-16T19:12:18.915Z,1.7
2019-01-16T19:14:18.555Z,1.8
2019-01-16T19:16:18.768Z,2.2
2019-01-16T19:18:18.477Z,1.8
2019-01-16T19:20:19.147Z,1.9
2019-01-16T19:22:18.790Z,1.3
2019-01-16T19:24:19.437Z,1.2
2019-01-16T19:26:18.700Z,1.9
2019-01-16T19:28:19.399Z,2
2019-01-16T19:30:19.060Z,1.6
2019-01-16T19:32:18.693Z,1.4
2019-01-16T19:34:19.332Z,2.1
2019-01-16T19:36:18.613Z,1.7
2019-01-16T19:38:19.289Z,2
2019-01-16T19:40:18.451Z,2.2
2019-01-16T19:42:19.086Z,2.2
2019-01-16T19:44:18.705Z,2.6
2019-01-16T19:46:18.546Z,2.3
2019-01-16T19:48:19.174Z,1.8
2019-01-16T19:50:18.878Z,1.5
2019-01-16T19:52:18.522Z,2
2019-01-16T19:54:19.164Z,1.7
2019-01-16T19:56:19.025Z,2.3
2019-01-16T19:58:18.679Z,2.6
2019-01-16T20:00:19.329Z,1.9
2019-01-16T20:02:18.954Z,1.5
2019-01-16T20:04:18.632Z,2.6
2019-01-16T20:06:18.970Z,2.7
2019-01-16T20:08:18.619Z,1.9
2019-01-16T20:10:18.730Z,2.3
2019-01-16T20:12:19.365Z,1.9
2019-01-16T20:14:19.020Z,1.9
2019-01-16T20:16:19.360Z,2.2
2019-01-16T20:18:19.082Z,2.1
2019-01-16T20:20:18.731Z,1.9
2019-01-16T20:22:19.381Z,2.4
2019-01-16T20:24:19.057Z,2.5
2019-01-16T20:26:19.376Z,1.7
2019-01-16T20:28:19.035Z,2
2019-01-16T20:30:18.674Z,1.6
2019-01-16T20:32:19.316Z,1.8
2019-01-16T20:34:18.932Z,1.9
2019-01-16T20:36:18.863Z,2.2
2019-01-16T20:38:18.523Z,1.6
2019-01-16T20:40:18.640Z,2.4
2019-01-16T20:42:19.301Z,2.5
2019-01-16T20:44:18.948Z,1.7
2019-01-16T20:46:19.198Z,1.6
2019-01-16T20:48:18.835Z,1.9
2019-01-16T20:50:18.511Z,2
2019-01-16T20:52:19.189Z,1.9
2019-01-16T20:54:18.827Z,2.7
2019-01-16T20:56:19.115Z,2
2019-01-16T20:58:18.745Z,1.9
2019-01-16T21:00:19.414Z,2.1
2019-01-16T21:02:19.082Z,2
2019-01-16T21:04:18.730Z,2
2019-01-16T21:06:19.103Z,2.1
2019-01-16T21:08:18.772Z,1.9
2019-01-16T21:10:18.936Z,2
2019-01-16T21:12:18.600Z,1.2
2019-01-16T21:14:19.232Z,2.3
2019-01-16T21:16:18.486Z,2.3
2019-01-16T21:18:19.211Z,2.1
2019-01-16T21:20:18.858Z,2.3
2019-01-16T21:22:18.498Z,2.1
2019-01-16T21:24:19.118Z,3
2019-01-16T21:26:19.386Z,1.9
2019-01-16T21:28:19.070Z,2.9
2019-01-16T21:30:18.719Z,2.5
2019-01-16T21:32:19.375Z,2.7
2019-01-16T21:34:19.051Z,2.6
2019-01-16T21:36:19.379Z,2.6
2019-01-16T21:38:19.010Z,2.5
2019-01-16T21:40:19.078Z,3.8
2019-01-16T21:42:18.710Z,4.4
2019-01-16T21:44:19.352Z,2.8
2019-01-16T21:46:18.627Z,3.3
2019-01-16T21:48:19.306Z,2.6
2019-01-16T21:50:18.993Z,3.3
2019-01-16T21:52:18.645Z,2.8
2019-01-16T21:54:19.275Z,2.7
2019-01-16T21:56:19.049Z,2.5
2019-01-16T21:58:18.697Z,2.6
2019-01-16T22:00:19.376Z,3.3
2019-01-16T22:02:19.026Z,2.6
2019-01-16T22:04:18.671Z,2.7
2019-01-16T22:06:18.452Z,2.6
2019-01-16T22:08:19.086Z,3.2
2019-01-16T22:10:19.168Z,2.6
2019-01-16T22:12:18.806Z,2.5
2019-01-16T22:14:18.437Z,2.7
2019-01-16T22:16:19.256Z,3.3
2019-01-16T22:18:18.971Z,2.2
2019-01-16T22:20:18.614Z,2.7
2019-01-16T22:22:19.236Z,2.8
2019-01-16T22:24:18.873Z,2
2019-01-16T22:26:18.702Z,2.6
2019-01-16T22:28:19.341Z,2.1
2019-01-16T22:30:19.049Z,3.2
2019-01-16T22:32:18.705Z,3.2
2019-01-16T22:34:19.354Z,2.7
2019-01-16T22:36:19.170Z,3
2019-01-16T22:38:18.813Z,3.1
2019-01-16T22:40:18.915Z,3.3
2019-01-16T22:42:18.534Z,2.7
2019-01-16T22:44:19.184Z,3
2019-01-16T22:46:19.441Z,2.2
2019-01-16T22:48:19.076Z,2.9
2019-01-16T22:50:18.750Z,2.6
2019-01-16T22:52:19.389Z,2.6
2019-01-16T22:54:19.026Z,2.4
2019-01-16T22:56:19.345Z,3.4
2019-01-16T22:58:18.990Z,2.9
2019-01-16T23:00:18.634Z,2
2019-01-16T23:02:19.275Z,1.8
2019-01-16T23:04:18.908Z,2.4
2019-01-16T23:06:19.148Z,2.6
2019-01-16T23:08:18.799Z,2
2019-01-16T23:10:18.908Z,2.2
2019-01-16T23:12:18.561Z,3.3
2019-01-16T23:14:19.184Z,2
2019-01-16T23:16:18.446Z,2.6
2019-01-16T23:18:19.184Z,2.2
2019-01-16T23:20:18.839Z,2.4
2019-01-16T23:22:18.469Z,2.3
2019-01-16T23:24:19.129Z,2.9
2019-01-16T23:26:19.394Z,3.3
2019-01-16T23:28:19.038Z,2.7
2019-01-16T23:30:18.661Z,2
2019-01-16T23:32:19.288Z,2.9
2019-01-16T23:34:18.934Z,2.5
2019-01-16T23:36:19.166Z,2.5
2019-01-16T23:38:18.790Z,2.4
2019-01-16T23:40:18.906Z,1.7
2019-01-16T23:42:18.556Z,3
2019-01-16T23:44:19.211Z,2.5
2019-01-16T23:46:19.007Z,1.8
2019-01-16T23:48:18.650Z,1.9
2019-01-16T23:50:19.321Z,1.7
2019-01-16T23:52:18.967Z,1.9
2019-01-16T23:54:18.609Z,2.2
2019-01-16T23:56:19.432Z,2.3
2019-01-16T23:58:19.080Z,2.2
